sensor_id;sensor_type;location;lat;lon;timestamp;temperature;humidity
52203;DHT22;38173;52.850;6.970;2023-03-11T00:02:16;-0.60;99.90
52203;DHT22;38173;52.850;6.970;2023-03-11T00:04:41;-0.60;99.90
52203;DHT22;38173;52.850;6.970;2023-03-11T00:07:08;-0.60;99.90
52203;DHT22;38173;52.850;6.970;2023-03-11T00:09:35;-0.70;99.90
52203;DHT22;38173;52.850;6.970;2023-03-11T00:12:01;-0.60;99.90
52203;DHT22;38173;52.850;6.970;2023-03-11T00:14:27;-0.60;99.90
52203;DHT22;38173;52.850;6.970;2023-03-11T00:16:52;-0.60;99.90
52203;DHT22;38173;52.850;6.970;2023-03-11T00:19:18;-0.60;99.90
52203;DHT22;38173;52.850;6.970;2023-03-11T00:21:44;-0.60;99.90
52203;DHT22;38173;52.850;6.970;2023-03-11T00:24:09;-0.60;99.90
52203;DHT22;38173;52.850;6.970;2023-03-11T00:26:35;-0.60;99.90
52203;DHT22;38173;52.850;6.970;2023-03-11T00:29:01;-0.60;99.90
52203;DHT22;38173;52.850;6.970;2023-03-11T00:31:26;-0.60;99.90
52203;DHT22;38173;52.850;6.970;2023-03-11T00:33:52;-0.60;99.90
52203;DHT22;38173;52.850;6.970;2023-03-11T00:36:22;-0.60;99.90
52203;DHT22;38173;52.850;6.970;2023-03-11T00:38:49;-0.60;99.90
52203;DHT22;38173;52.850;6.970;2023-03-11T00:41:14;-0.60;99.90
52203;DHT22;38173;52.850;6.970;2023-03-11T00:43:43;-0.60;99.90
52203;DHT22;38173;52.850;6.970;2023-03-11T00:46:08;-0.50;99.90
52203;DHT22;38173;52.850;6.970;2023-03-11T00:48:34;-0.60;99.90
52203;DHT22;38173;52.850;6.970;2023-03-11T00:51:03;-0.50;99.90
52203;DHT22;38173;52.850;6.970;2023-03-11T00:53:28;-0.50;99.90
52203;DHT22;38173;52.850;6.970;2023-03-11T00:55:54;-0.50;99.90
52203;DHT22;38173;52.850;6.970;2023-03-11T00:58:20;-0.50;99.90
52203;DHT22;38173;52.850;6.970;2023-03-11T01:00:51;-0.50;99.90
52203;DHT22;38173;52.850;6.970;2023-03-11T01:03:17;-0.50;99.90
52203;DHT22;38173;52.850;6.970;2023-03-11T01:05:42;-0.50;99.90
52203;DHT22;38173;52.850;6.970;2023-03-11T01:08:08;-0.50;99.90
52203;DHT22;38173;52.850;6.970;2023-03-11T01:10:34;-0.50;99.90
52203;DHT22;38173;52.850;6.970;2023-03-11T01:13:00;-0.50;99.90
52203;DHT22;38173;52.850;6.970;2023-03-11T01:15:27;-0.50;99.90
52203;DHT22;38173;52.850;6.970;2023-03-11T01:17:54;-0.50;99.90
52203;DHT22;38173;52.850;6.970;2023-03-11T01:20:22;-0.50;99.90
52203;DHT22;38173;52.850;6.970;2023-03-11T01:22:48;-0.50;99.90
52203;DHT22;38173;52.850;6.970;2023-03-11T01:25:15;-0.50;99.90
52203;DHT22;38173;52.850;6.970;2023-03-11T01:27:41;-0.50;99.90
52203;DHT22;38173;52.850;6.970;2023-03-11T01:30:07;-0.50;99.90
52203;DHT22;38173;52.850;6.970;2023-03-11T01:32:49;-0.60;99.90
52203;DHT22;38173;52.850;6.970;2023-03-11T01:35:41;-0.60;99.90
52203;DHT22;38173;52.850;6.970;2023-03-11T01:38:07;-0.60;99.90
52203;DHT22;38173;52.850;6.970;2023-03-11T01:40:34;-0.60;99.90
52203;DHT22;38173;52.850;6.970;2023-03-11T01:43:01;-0.70;99.90
52203;DHT22;38173;52.850;6.970;2023-03-11T01:45:40;-0.60;99.90
52203;DHT22;38173;52.850;6.970;2023-03-11T01:48:07;-0.70;99.90
52203;DHT22;38173;52.850;6.970;2023-03-11T01:50:34;-0.70;99.90
52203;DHT22;38173;52.850;6.970;2023-03-11T01:53:02;-0.70;99.90
52203;DHT22;38173;52.850;6.970;2023-03-11T01:55:28;-0.70;99.90
52203;DHT22;38173;52.850;6.970;2023-03-11T01:57:55;-0.60;99.90
52203;DHT22;38173;52.850;6.970;2023-03-11T02:00:21;-0.70;99.90
52203;DHT22;38173;52.850;6.970;2023-03-11T02:05:15;-0.70;99.90
52203;DHT22;38173;52.850;6.970;2023-03-11T02:07:41;-0.70;99.90
52203;DHT22;38173;52.850;6.970;2023-03-11T02:10:07;-0.70;99.90
52203;DHT22;38173;52.850;6.970;2023-03-11T02:12:34;-0.70;99.90
52203;DHT22;38173;52.850;6.970;2023-03-11T02:15:00;-0.70;99.90
52203;DHT22;38173;52.850;6.970;2023-03-11T02:17:26;-0.70;99.90
52203;DHT22;38173;52.850;6.970;2023-03-11T02:22:39;-0.70;99.90
52203;DHT22;38173;52.850;6.970;2023-03-11T02:25:08;-0.70;99.90
52203;DHT22;38173;52.850;6.970;2023-03-11T02:27:37;-0.70;99.90
52203;DHT22;38173;52.850;6.970;2023-03-11T02:30:04;-0.80;99.90
52203;DHT22;38173;52.850;6.970;2023-03-11T02:32:32;-0.80;99.90
52203;DHT22;38173;52.850;6.970;2023-03-11T02:34:58;-0.80;99.90
52203;DHT22;38173;52.850;6.970;2023-03-11T02:37:26;-0.70;99.90
52203;DHT22;38173;52.850;6.970;2023-03-11T02:40:09;-0.70;99.90
52203;DHT22;38173;52.850;6.970;2023-03-11T02:42:42;-0.70;99.90
52203;DHT22;38173;52.850;6.970;2023-03-11T02:45:09;-0.70;99.90
52203;DHT22;38173;52.850;6.970;2023-03-11T02:47:37;-0.70;99.90
52203;DHT22;38173;52.850;6.970;2023-03-11T02:50:05;-0.70;99.90
52203;DHT22;38173;52.850;6.970;2023-03-11T02:52:32;-0.80;99.90
52203;DHT22;38173;52.850;6.970;2023-03-11T02:54:59;-0.80;99.90
52203;DHT22;38173;52.850;6.970;2023-03-11T02:57:26;-0.80;99.90
52203;DHT22;38173;52.850;6.970;2023-03-11T02:59:52;-0.90;99.90
52203;DHT22;38173;52.850;6.970;2023-03-11T03:02:18;-1.00;99.90
52203;DHT22;38173;52.850;6.970;2023-03-11T03:04:45;-1.00;99.90
52203;DHT22;38173;52.850;6.970;2023-03-11T03:07:11;-1.10;99.90
52203;DHT22;38173;52.850;6.970;2023-03-11T03:09:37;-1.20;99.90
52203;DHT22;38173;52.850;6.970;2023-03-11T03:12:03;-1.30;99.90
52203;DHT22;38173;52.850;6.970;2023-03-11T03:14:29;-1.30;99.90
52203;DHT22;38173;52.850;6.970;2023-03-11T03:16:55;-1.30;99.90
52203;DHT22;38173;52.850;6.970;2023-03-11T03:19:21;-1.40;99.90
52203;DHT22;38173;52.850;6.970;2023-03-11T03:21:48;-1.40;99.90
52203;DHT22;38173;52.850;6.970;2023-03-11T03:24:14;-1.40;99.90
52203;DHT22;38173;52.850;6.970;2023-03-11T03:26:40;-1.40;99.90
52203;DHT22;38173;52.850;6.970;2023-03-11T03:29:06;-1.40;99.90
52203;DHT22;38173;52.850;6.970;2023-03-11T03:31:32;-1.40;99.90
52203;DHT22;38173;52.850;6.970;2023-03-11T03:33:58;-1.50;99.90
52203;DHT22;38173;52.850;6.970;2023-03-11T03:36:23;-1.50;99.90
52203;DHT22;38173;52.850;6.970;2023-03-11T03:38:55;-1.50;99.90
52203;DHT22;38173;52.850;6.970;2023-03-11T03:41:21;-1.50;99.90
52203;DHT22;38173;52.850;6.970;2023-03-11T03:43:47;-1.50;99.90
52203;DHT22;38173;52.850;6.970;2023-03-11T03:46:13;-1.50;99.90
52203;DHT22;38173;52.850;6.970;2023-03-11T03:48:39;-1.50;99.90
52203;DHT22;38173;52.850;6.970;2023-03-11T03:51:06;-1.60;99.90
52203;DHT22;38173;52.850;6.970;2023-03-11T03:53:33;-1.60;99.90
52203;DHT22;38173;52.850;6.970;2023-03-11T03:56:02;-1.70;99.90
52203;DHT22;38173;52.850;6.970;2023-03-11T03:58:29;-1.70;99.90
52203;DHT22;38173;52.850;6.970;2023-03-11T04:00:56;-1.80;99.90
52203;DHT22;38173;52.850;6.970;2023-03-11T04:03:21;-1.90;99.90
52203;DHT22;38173;52.850;6.970;2023-03-11T04:05:48;-2.00;99.90
52203;DHT22;38173;52.850;6.970;2023-03-11T04:08:14;-2.00;99.90
52203;DHT22;38173;52.850;6.970;2023-03-11T04:10:40;-2.10;99.90
52203;DHT22;38173;52.850;6.970;2023-03-11T04:13:06;-2.20;99.90
52203;DHT22;38173;52.850;6.970;2023-03-11T04:15:32;-2.20;99.90
52203;DHT22;38173;52.850;6.970;2023-03-11T04:17:57;-2.20;99.90
52203;DHT22;38173;52.850;6.970;2023-03-11T04:20:23;-2.30;99.90
52203;DHT22;38173;52.850;6.970;2023-03-11T04:22:49;-2.30;99.90
52203;DHT22;38173;52.850;6.970;2023-03-11T04:25:15;-2.30;99.90
52203;DHT22;38173;52.850;6.970;2023-03-11T04:27:41;-2.40;99.90
52203;DHT22;38173;52.850;6.970;2023-03-11T04:30:10;-2.40;99.90
52203;DHT22;38173;52.850;6.970;2023-03-11T04:32:37;-2.50;99.90
52203;DHT22;38173;52.850;6.970;2023-03-11T04:35:04;-2.60;99.90
52203;DHT22;38173;52.850;6.970;2023-03-11T04:37:32;-2.60;99.90
52203;DHT22;38173;52.850;6.970;2023-03-11T04:39:59;-2.70;99.90
52203;DHT22;38173;52.850;6.970;2023-03-11T04:42:25;-2.70;99.90
52203;DHT22;38173;52.850;6.970;2023-03-11T04:44:51;-2.70;99.90
52203;DHT22;38173;52.850;6.970;2023-03-11T04:47:18;-2.70;99.90
52203;DHT22;38173;52.850;6.970;2023-03-11T04:49:49;-2.80;99.90
52203;DHT22;38173;52.850;6.970;2023-03-11T04:52:15;-2.80;99.90
52203;DHT22;38173;52.850;6.970;2023-03-11T04:54:40;-2.80;99.90
52203;DHT22;38173;52.850;6.970;2023-03-11T04:57:06;-2.80;99.90
52203;DHT22;38173;52.850;6.970;2023-03-11T04:59:32;-2.90;99.90
52203;DHT22;38173;52.850;6.970;2023-03-11T05:01:57;-3.00;99.90
52203;DHT22;38173;52.850;6.970;2023-03-11T05:04:23;-3.00;99.90
52203;DHT22;38173;52.850;6.970;2023-03-11T05:06:52;-3.00;99.90
52203;DHT22;38173;52.850;6.970;2023-03-11T05:09:19;-3.10;99.90
52203;DHT22;38173;52.850;6.970;2023-03-11T05:11:44;-3.10;99.90
52203;DHT22;38173;52.850;6.970;2023-03-11T05:14:10;-3.10;99.90
52203;DHT22;38173;52.850;6.970;2023-03-11T05:16:36;-3.10;99.90
52203;DHT22;38173;52.850;6.970;2023-03-11T05:19:01;-3.20;99.90
52203;DHT22;38173;52.850;6.970;2023-03-11T05:21:51;-3.20;99.90
52203;DHT22;38173;52.850;6.970;2023-03-11T05:24:18;-3.20;99.90
52203;DHT22;38173;52.850;6.970;2023-03-11T05:26:50;-3.30;99.90
52203;DHT22;38173;52.850;6.970;2023-03-11T05:29:16;-3.30;99.90
52203;DHT22;38173;52.850;6.970;2023-03-11T05:31:45;-3.30;99.90
52203;DHT22;38173;52.850;6.970;2023-03-11T05:34:17;-3.40;99.90
52203;DHT22;38173;52.850;6.970;2023-03-11T05:36:44;-3.40;99.90
52203;DHT22;38173;52.850;6.970;2023-03-11T05:39:10;-3.40;99.90
52203;DHT22;38173;52.850;6.970;2023-03-11T05:41:38;-3.40;99.90
52203;DHT22;38173;52.850;6.970;2023-03-11T05:44:05;-3.40;99.90
52203;DHT22;38173;52.850;6.970;2023-03-11T05:46:37;-3.30;99.90
52203;DHT22;38173;52.850;6.970;2023-03-11T05:49:05;-3.30;99.90
52203;DHT22;38173;52.850;6.970;2023-03-11T05:51:34;-3.30;99.90
52203;DHT22;38173;52.850;6.970;2023-03-11T05:54:05;-3.30;99.90
52203;DHT22;38173;52.850;6.970;2023-03-11T05:56:40;-3.20;99.90
52203;DHT22;38173;52.850;6.970;2023-03-11T05:59:11;-3.20;99.90
52203;DHT22;38173;52.850;6.970;2023-03-11T06:01:48;-3.20;99.90
52203;DHT22;38173;52.850;6.970;2023-03-11T06:04:16;-3.20;99.90
52203;DHT22;38173;52.850;6.970;2023-03-11T06:06:49;-3.30;99.90
52203;DHT22;38173;52.850;6.970;2023-03-11T06:09:15;-3.30;99.90
52203;DHT22;38173;52.850;6.970;2023-03-11T06:11:41;-3.30;99.90
52203;DHT22;38173;52.850;6.970;2023-03-11T06:14:12;-3.40;99.90
52203;DHT22;38173;52.850;6.970;2023-03-11T06:17:02;-3.40;99.90
52203;DHT22;38173;52.850;6.970;2023-03-11T06:20:06;-3.40;99.90
52203;DHT22;38173;52.850;6.970;2023-03-11T06:22:47;-3.40;99.90
52203;DHT22;38173;52.850;6.970;2023-03-11T06:25:24;-3.50;99.90
52203;DHT22;38173;52.850;6.970;2023-03-11T06:27:58;-3.50;99.90
52203;DHT22;38173;52.850;6.970;2023-03-11T06:30:32;-3.50;99.90
52203;DHT22;38173;52.850;6.970;2023-03-11T06:33:13;-3.50;99.90
52203;DHT22;38173;52.850;6.970;2023-03-11T06:35:42;-3.40;99.90
52203;DHT22;38173;52.850;6.970;2023-03-11T06:38:11;-3.40;99.90
52203;DHT22;38173;52.850;6.970;2023-03-11T06:40:37;-3.30;99.90
52203;DHT22;38173;52.850;6.970;2023-03-11T06:43:08;-3.20;99.90
52203;DHT22;38173;52.850;6.970;2023-03-11T06:45:49;-3.20;99.90
52203;DHT22;38173;52.850;6.970;2023-03-11T06:48:15;-3.10;99.90
52203;DHT22;38173;52.850;6.970;2023-03-11T06:50:40;-3.00;99.90
52203;DHT22;38173;52.850;6.970;2023-03-11T06:53:07;-3.00;99.90
52203;DHT22;38173;52.850;6.970;2023-03-11T06:55:33;-2.90;99.90
52203;DHT22;38173;52.850;6.970;2023-03-11T06:57:59;-2.80;99.90
52203;DHT22;38173;52.850;6.970;2023-03-11T07:00:24;-2.80;99.90
52203;DHT22;38173;52.850;6.970;2023-03-11T07:02:50;-2.70;99.90
52203;DHT22;38173;52.850;6.970;2023-03-11T07:05:16;-2.60;99.90
52203;DHT22;38173;52.850;6.970;2023-03-11T07:07:43;-2.60;99.90
52203;DHT22;38173;52.850;6.970;2023-03-11T07:10:09;-2.50;99.90
52203;DHT22;38173;52.850;6.970;2023-03-11T07:12:34;-2.40;99.90
52203;DHT22;38173;52.850;6.970;2023-03-11T07:15:01;-2.30;99.90
52203;DHT22;38173;52.850;6.970;2023-03-11T07:17:27;-2.30;99.90
52203;DHT22;38173;52.850;6.970;2023-03-11T07:19:52;-2.30;99.90
52203;DHT22;38173;52.850;6.970;2023-03-11T07:22:18;-2.20;99.90
52203;DHT22;38173;52.850;6.970;2023-03-11T07:24:44;-2.20;99.90
52203;DHT22;38173;52.850;6.970;2023-03-11T07:27:11;-2.10;99.90
52203;DHT22;38173;52.850;6.970;2023-03-11T07:29:36;-2.00;99.90
52203;DHT22;38173;52.850;6.970;2023-03-11T07:32:02;-1.90;99.90
52203;DHT22;38173;52.850;6.970;2023-03-11T07:34:28;-1.90;99.90
52203;DHT22;38173;52.850;6.970;2023-03-11T07:36:54;-1.80;99.90
52203;DHT22;38173;52.850;6.970;2023-03-11T07:39:24;-1.70;99.90
52203;DHT22;38173;52.850;6.970;2023-03-11T07:41:50;-1.70;99.90
52203;DHT22;38173;52.850;6.970;2023-03-11T07:44:16;-1.60;99.90
52203;DHT22;38173;52.850;6.970;2023-03-11T07:46:42;-1.50;99.90
52203;DHT22;38173;52.850;6.970;2023-03-11T07:49:08;-1.40;99.90
52203;DHT22;38173;52.850;6.970;2023-03-11T07:51:35;-1.40;99.90
52203;DHT22;38173;52.850;6.970;2023-03-11T07:54:01;-1.30;99.90
52203;DHT22;38173;52.850;6.970;2023-03-11T07:56:27;-1.20;99.90
52203;DHT22;38173;52.850;6.970;2023-03-11T07:58:53;-1.20;99.90
52203;DHT22;38173;52.850;6.970;2023-03-11T08:01:20;-1.10;99.90
52203;DHT22;38173;52.850;6.970;2023-03-11T08:03:47;-1.00;99.90
52203;DHT22;38173;52.850;6.970;2023-03-11T08:06:18;-0.90;99.90
52203;DHT22;38173;52.850;6.970;2023-03-11T08:08:47;-0.80;99.90
52203;DHT22;38173;52.850;6.970;2023-03-11T08:11:14;-0.70;99.90
52203;DHT22;38173;52.850;6.970;2023-03-11T08:13:40;-0.70;99.90
52203;DHT22;38173;52.850;6.970;2023-03-11T08:16:06;-0.60;99.90
52203;DHT22;38173;52.850;6.970;2023-03-11T08:18:32;-0.50;99.90
52203;DHT22;38173;52.850;6.970;2023-03-11T08:21:03;-0.40;99.90
52203;DHT22;38173;52.850;6.970;2023-03-11T08:23:29;-0.30;99.90
52203;DHT22;38173;52.850;6.970;2023-03-11T08:25:56;-0.20;99.90
52203;DHT22;38173;52.850;6.970;2023-03-11T08:28:22;-0.20;99.90
52203;DHT22;38173;52.850;6.970;2023-03-11T08:30:47;-0.10;99.90
52203;DHT22;38173;52.850;6.970;2023-03-11T08:33:13;0.00;99.90
52203;DHT22;38173;52.850;6.970;2023-03-11T08:35:39;0.10;99.90
52203;DHT22;38173;52.850;6.970;2023-03-11T08:38:04;0.20;99.90
52203;DHT22;38173;52.850;6.970;2023-03-11T08:40:30;0.30;99.90
52203;DHT22;38173;52.850;6.970;2023-03-11T08:42:56;0.40;99.90
52203;DHT22;38173;52.850;6.970;2023-03-11T08:45:22;0.50;99.90
52203;DHT22;38173;52.850;6.970;2023-03-11T08:47:47;0.60;99.90
52203;DHT22;38173;52.850;6.970;2023-03-11T08:50:14;0.60;99.90
52203;DHT22;38173;52.850;6.970;2023-03-11T08:52:40;0.70;99.90
52203;DHT22;38173;52.850;6.970;2023-03-11T08:55:06;0.80;99.90
52203;DHT22;38173;52.850;6.970;2023-03-11T08:57:33;0.90;99.90
52203;DHT22;38173;52.850;6.970;2023-03-11T08:59:59;0.90;99.90
52203;DHT22;38173;52.850;6.970;2023-03-11T09:02:25;1.00;99.90
52203;DHT22;38173;52.850;6.970;2023-03-11T09:04:50;1.00;99.90
52203;DHT22;38173;52.850;6.970;2023-03-11T09:07:16;1.10;99.90
52203;DHT22;38173;52.850;6.970;2023-03-11T09:09:42;1.20;99.90
52203;DHT22;38173;52.850;6.970;2023-03-11T09:12:08;1.30;99.90
52203;DHT22;38173;52.850;6.970;2023-03-11T09:14:34;1.40;99.90
52203;DHT22;38173;52.850;6.970;2023-03-11T09:17:01;1.50;99.90
52203;DHT22;38173;52.850;6.970;2023-03-11T09:19:27;1.60;99.90
52203;DHT22;38173;52.850;6.970;2023-03-11T09:21:53;1.70;99.90
52203;DHT22;38173;52.850;6.970;2023-03-11T09:24:19;1.80;99.90
52203;DHT22;38173;52.850;6.970;2023-03-11T09:26:44;1.80;99.90
52203;DHT22;38173;52.850;6.970;2023-03-11T09:29:10;1.90;99.90
52203;DHT22;38173;52.850;6.970;2023-03-11T09:31:36;2.00;99.90
52203;DHT22;38173;52.850;6.970;2023-03-11T09:34:02;2.20;99.90
52203;DHT22;38173;52.850;6.970;2023-03-11T09:36:28;2.30;99.90
52203;DHT22;38173;52.850;6.970;2023-03-11T09:38:54;2.30;99.90
52203;DHT22;38173;52.850;6.970;2023-03-11T09:43:57;2.50;99.90
52203;DHT22;38173;52.850;6.970;2023-03-11T09:49:13;2.50;99.90
52203;DHT22;38173;52.850;6.970;2023-03-11T09:51:45;2.60;99.90
52203;DHT22;38173;52.850;6.970;2023-03-11T09:54:14;2.70;99.90
52203;DHT22;38173;52.850;6.970;2023-03-11T09:56:40;2.90;99.90
52203;DHT22;38173;52.850;6.970;2023-03-11T09:59:08;2.90;99.90
52203;DHT22;38173;52.850;6.970;2023-03-11T10:01:46;3.00;99.90
52203;DHT22;38173;52.850;6.970;2023-03-11T10:04:23;3.10;99.90
52203;DHT22;38173;52.850;6.970;2023-03-11T10:06:51;3.10;99.90
52203;DHT22;38173;52.850;6.970;2023-03-11T10:09:29;3.20;99.90
52203;DHT22;38173;52.850;6.970;2023-03-11T10:17:20;3.40;99.90
52203;DHT22;38173;52.850;6.970;2023-03-11T10:25:08;3.50;99.90
52203;DHT22;38173;52.850;6.970;2023-03-11T10:33:06;3.60;99.90
52203;DHT22;38173;52.850;6.970;2023-03-11T10:35:40;3.60;99.90
52203;DHT22;38173;52.850;6.970;2023-03-11T10:38:13;3.60;99.90
52203;DHT22;38173;52.850;6.970;2023-03-11T10:40:40;3.70;99.90
52203;DHT22;38173;52.850;6.970;2023-03-11T10:45:50;3.80;99.90
52203;DHT22;38173;52.850;6.970;2023-03-11T10:48:18;3.90;99.90
52203;DHT22;38173;52.850;6.970;2023-03-11T10:51:30;3.90;99.90
52203;DHT22;38173;52.850;6.970;2023-03-11T10:53:30;3.80;99.90
52203;DHT22;38173;52.850;6.970;2023-03-11T10:55:56;3.90;99.90
52203;DHT22;38173;52.850;6.970;2023-03-11T10:58:23;3.90;99.90
52203;DHT22;38173;52.850;6.970;2023-03-11T11:00:58;4.10;99.90
52203;DHT22;38173;52.850;6.970;2023-03-11T11:03:24;4.20;99.90
52203;DHT22;38173;52.850;6.970;2023-03-11T11:05:59;4.50;99.90
52203;DHT22;38173;52.850;6.970;2023-03-11T11:08:26;4.70;99.90
52203;DHT22;38173;52.850;6.970;2023-03-11T11:10:53;4.90;99.90
52203;DHT22;38173;52.850;6.970;2023-03-11T11:16:08;5.20;99.90
52203;DHT22;38173;52.850;6.970;2023-03-11T13:05:25;5.20;99.90
52203;DHT22;38173;52.850;6.970;2023-03-11T13:07:59;5.20;99.90
52203;DHT22;38173;52.850;6.970;2023-03-11T13:12:53;5.20;99.90
52203;DHT22;38173;52.850;6.970;2023-03-11T13:18:11;5.40;99.90
52203;DHT22;38173;52.850;6.970;2023-03-11T13:20:41;5.40;99.90
52203;DHT22;38173;52.850;6.970;2023-03-11T13:28:10;5.60;99.90
52203;DHT22;38173;52.850;6.970;2023-03-11T13:30:41;5.60;99.90
52203;DHT22;38173;52.850;6.970;2023-03-11T13:33:17;5.60;99.90
52203;DHT22;38173;52.850;6.970;2023-03-11T13:36:00;5.60;99.90
52203;DHT22;38173;52.850;6.970;2023-03-11T13:40:57;5.60;99.90
52203;DHT22;38173;52.850;6.970;2023-03-11T13:43:23;5.50;99.90
52203;DHT22;38173;52.850;6.970;2023-03-11T13:45:57;5.60;99.90
52203;DHT22;38173;52.850;6.970;2023-03-11T13:48:41;5.60;99.90
52203;DHT22;38173;52.850;6.970;2023-03-11T13:53:45;6.40;99.90
52203;DHT22;38173;52.850;6.970;2023-03-11T13:56:30;6.90;99.90
52203;DHT22;38173;52.850;6.970;2023-03-11T13:59:42;7.40;99.90
52203;DHT22;38173;52.850;6.970;2023-03-11T14:01:53;7.50;99.90
52203;DHT22;38173;52.850;6.970;2023-03-11T14:04:19;8.00;99.90
52203;DHT22;38173;52.850;6.970;2023-03-11T14:06:49;8.60;99.90
52203;DHT22;38173;52.850;6.970;2023-03-11T14:09:19;8.90;99.90
52203;DHT22;38173;52.850;6.970;2023-03-11T14:11:45;9.30;99.90
52203;DHT22;38173;52.850;6.970;2023-03-11T14:14:57;9.60;99.90
52203;DHT22;38173;52.850;6.970;2023-03-11T14:17:02;9.80;99.90
52203;DHT22;38173;52.850;6.970;2023-03-11T14:19:28;10.10;99.90
52203;DHT22;38173;52.850;6.970;2023-03-11T14:21:54;10.20;99.90
52203;DHT22;38173;52.850;6.970;2023-03-11T14:24:28;10.10;99.90
52203;DHT22;38173;52.850;6.970;2023-03-11T14:26:54;10.10;99.90
52203;DHT22;38173;52.850;6.970;2023-03-11T14:29:22;10.20;99.90
52203;DHT22;38173;52.850;6.970;2023-03-11T14:31:52;10.50;99.90
52203;DHT22;38173;52.850;6.970;2023-03-11T14:34:19;10.60;99.90
52203;DHT22;38173;52.850;6.970;2023-03-11T14:36:49;10.70;99.90
52203;DHT22;38173;52.850;6.970;2023-03-11T14:39:24;10.50;99.90
52203;DHT22;38173;52.850;6.970;2023-03-11T14:41:50;10.90;99.90
52203;DHT22;38173;52.850;6.970;2023-03-11T14:44:17;11.10;99.90
52203;DHT22;38173;52.850;6.970;2023-03-11T14:46:43;10.70;99.90
52203;DHT22;38173;52.850;6.970;2023-03-11T14:49:17;10.10;97.60
52203;DHT22;38173;52.850;6.970;2023-03-11T14:51:45;9.50;99.90
52203;DHT22;38173;52.850;6.970;2023-03-11T14:54:13;9.00;99.90
52203;DHT22;38173;52.850;6.970;2023-03-11T14:56:43;8.60;99.90
52203;DHT22;38173;52.850;6.970;2023-03-11T15:01:37;7.90;99.90
52203;DHT22;38173;52.850;6.970;2023-03-11T15:04:11;7.40;99.90
52203;DHT22;38173;52.850;6.970;2023-03-11T15:06:38;6.90;99.90
52203;DHT22;38173;52.850;6.970;2023-03-11T15:09:06;6.90;99.90
52203;DHT22;38173;52.850;6.970;2023-03-11T15:14:19;7.80;99.90
52203;DHT22;38173;52.850;6.970;2023-03-11T15:16:45;8.10;99.90
52203;DHT22;38173;52.850;6.970;2023-03-11T15:19:21;8.50;99.90
52203;DHT22;38173;52.850;6.970;2023-03-11T15:21:47;8.90;99.90
52203;DHT22;38173;52.850;6.970;2023-03-11T15:24:17;9.00;99.90
52203;DHT22;38173;52.850;6.970;2023-03-11T15:26:50;9.20;99.90
52203;DHT22;38173;52.850;6.970;2023-03-11T15:29:16;9.40;99.90
52203;DHT22;38173;52.850;6.970;2023-03-11T15:31:42;9.70;99.90
52203;DHT22;38173;52.850;6.970;2023-03-11T15:41:42;10.20;99.90
52203;DHT22;38173;52.850;6.970;2023-03-11T15:44:22;10.30;99.90
52203;DHT22;38173;52.850;6.970;2023-03-11T15:46:48;10.40;99.90
52203;DHT22;38173;52.850;6.970;2023-03-11T15:49:14;10.30;99.90
52203;DHT22;38173;52.850;6.970;2023-03-11T15:51:40;9.90;97.00
52203;DHT22;38173;52.850;6.970;2023-03-11T15:54:07;9.20;99.90
52203;DHT22;38173;52.850;6.970;2023-03-11T15:56:32;8.40;99.90
52203;DHT22;38173;52.850;6.970;2023-03-11T15:58:58;7.50;99.90
52203;DHT22;38173;52.850;6.970;2023-03-11T16:01:24;6.90;99.90
52203;DHT22;38173;52.850;6.970;2023-03-11T16:03:55;6.50;99.90
52203;DHT22;38173;52.850;6.970;2023-03-11T16:06:21;6.20;99.90
52203;DHT22;38173;52.850;6.970;2023-03-11T16:08:47;5.90;99.90
52203;DHT22;38173;52.850;6.970;2023-03-11T16:11:13;5.70;99.90
52203;DHT22;38173;52.850;6.970;2023-03-11T16:13:39;5.40;99.90
52203;DHT22;38173;52.850;6.970;2023-03-11T16:16:05;5.20;99.90
52203;DHT22;38173;52.850;6.970;2023-03-11T16:18:30;5.00;99.90
52203;DHT22;38173;52.850;6.970;2023-03-11T16:20:57;4.90;99.90
52203;DHT22;38173;52.850;6.970;2023-03-11T16:23:23;4.70;99.90
52203;DHT22;38173;52.850;6.970;2023-03-11T16:25:50;4.70;99.90
52203;DHT22;38173;52.850;6.970;2023-03-11T16:28:17;4.60;99.90
52203;DHT22;38173;52.850;6.970;2023-03-11T16:30:43;4.50;99.90
52203;DHT22;38173;52.850;6.970;2023-03-11T16:33:09;4.40;99.90
52203;DHT22;38173;52.850;6.970;2023-03-11T16:35:34;4.40;99.90
52203;DHT22;38173;52.850;6.970;2023-03-11T16:38:00;4.30;99.90
52203;DHT22;38173;52.850;6.970;2023-03-11T16:40:26;4.30;99.90
52203;DHT22;38173;52.850;6.970;2023-03-11T16:42:57;4.20;99.90
52203;DHT22;38173;52.850;6.970;2023-03-11T16:45:24;4.20;99.90
52203;DHT22;38173;52.850;6.970;2023-03-11T16:47:49;4.20;99.90
52203;DHT22;38173;52.850;6.970;2023-03-11T16:50:15;4.00;99.90
52203;DHT22;38173;52.850;6.970;2023-03-11T16:52:40;3.80;99.90
52203;DHT22;38173;52.850;6.970;2023-03-11T16:55:06;3.60;99.90
52203;DHT22;38173;52.850;6.970;2023-03-11T16:57:32;3.40;99.90
52203;DHT22;38173;52.850;6.970;2023-03-11T16:59:58;3.30;99.90
52203;DHT22;38173;52.850;6.970;2023-03-11T17:02:23;3.20;99.90
52203;DHT22;38173;52.850;6.970;2023-03-11T17:04:49;3.20;99.90
52203;DHT22;38173;52.850;6.970;2023-03-11T17:07:15;3.10;99.90
52203;DHT22;38173;52.850;6.970;2023-03-11T17:09:41;3.10;99.90
52203;DHT22;38173;52.850;6.970;2023-03-11T17:12:07;3.00;99.90
52203;DHT22;38173;52.850;6.970;2023-03-11T17:14:34;3.00;99.90
52203;DHT22;38173;52.850;6.970;2023-03-11T17:17:00;2.90;99.90
52203;DHT22;38173;52.850;6.970;2023-03-11T17:19:25;2.80;99.90
52203;DHT22;38173;52.850;6.970;2023-03-11T17:21:54;2.80;99.90
52203;DHT22;38173;52.850;6.970;2023-03-11T17:24:20;2.70;99.90
52203;DHT22;38173;52.850;6.970;2023-03-11T17:26:45;2.60;99.90
52203;DHT22;38173;52.850;6.970;2023-03-11T17:29:11;2.60;99.90
52203;DHT22;38173;52.850;6.970;2023-03-11T17:31:36;2.50;99.90
52203;DHT22;38173;52.850;6.970;2023-03-11T17:34:02;2.40;99.90
52203;DHT22;38173;52.850;6.970;2023-03-11T17:36:28;2.40;99.90
52203;DHT22;38173;52.850;6.970;2023-03-11T17:38:53;2.40;99.90
52203;DHT22;38173;52.850;6.970;2023-03-11T17:41:19;2.30;99.90
52203;DHT22;38173;52.850;6.970;2023-03-11T17:43:46;2.30;99.90
52203;DHT22;38173;52.850;6.970;2023-03-11T17:46:12;2.20;99.90
52203;DHT22;38173;52.850;6.970;2023-03-11T17:48:41;2.20;99.90
52203;DHT22;38173;52.850;6.970;2023-03-11T17:51:08;2.20;99.90
52203;DHT22;38173;52.850;6.970;2023-03-11T17:53:35;2.20;99.90
52203;DHT22;38173;52.850;6.970;2023-03-11T17:56:02;2.20;99.90
52203;DHT22;38173;52.850;6.970;2023-03-11T17:58:29;2.20;99.90
52203;DHT22;38173;52.850;6.970;2023-03-11T18:00:54;2.20;99.90
52203;DHT22;38173;52.850;6.970;2023-03-11T18:03:20;2.20;99.90
52203;DHT22;38173;52.850;6.970;2023-03-11T18:05:55;2.20;99.90
52203;DHT22;38173;52.850;6.970;2023-03-11T18:08:21;2.20;99.90
52203;DHT22;38173;52.850;6.970;2023-03-11T18:10:48;2.20;99.90
52203;DHT22;38173;52.850;6.970;2023-03-11T18:13:13;2.20;99.90
52203;DHT22;38173;52.850;6.970;2023-03-11T18:15:39;2.20;99.90
52203;DHT22;38173;52.850;6.970;2023-03-11T18:18:05;2.20;99.90
52203;DHT22;38173;52.850;6.970;2023-03-11T18:20:31;2.20;99.90
52203;DHT22;38173;52.850;6.970;2023-03-11T18:22:57;2.20;99.90
52203;DHT22;38173;52.850;6.970;2023-03-11T18:25:23;2.30;99.90
52203;DHT22;38173;52.850;6.970;2023-03-11T18:27:48;2.30;99.90
52203;DHT22;38173;52.850;6.970;2023-03-11T18:30:14;2.20;99.90